Bonair, Iowa
Current Conditions -  °F | °C
As of 2:15 PM on Monday 24 Nov 2014 (Local Time) from KFKA Reporting Station
Overcast Overcast  
Wind Chill:   Ceiling: 1200
Heat Index: 19°   Visibility: 10mi
Dew Point: 16°   Wind: 23mph
Humidity: 86%   Direction: 300°WNW
Pressure: 29.48"   Gusts: 28mph
Location:  43.4648°N, 92.2573°W
Report Text: KFKA 242015Z AUTO 30020G24KT 10SM OVC012 M07/M09 A2948 RMK AO2 T10701090
Loading
Personal Weather Stations






























Interactive Weather Map New forecast layout! Learn more

10-Day Weather Forecast

Advertisements
Track Severe Weather on mobile